sensor_id;sensor_type;location;lat;lon;timestamp;temperature;humidity
23869;DHT22;12115;47.128;15.422;2024-02-23T00:00:39;8.70;99.90
23869;DHT22;12115;47.128;15.422;2024-02-23T00:03:06;8.60;99.90
23869;DHT22;12115;47.128;15.422;2024-02-23T00:05:35;8.60;99.90
23869;DHT22;12115;47.128;15.422;2024-02-23T00:08:02;8.60;99.90
23869;DHT22;12115;47.128;15.422;2024-02-23T00:10:29;8.60;99.90
23869;DHT22;12115;47.128;15.422;2024-02-23T00:12:56;8.60;99.90
23869;DHT22;12115;47.128;15.422;2024-02-23T00:15:23;8.60;99.90
23869;DHT22;12115;47.128;15.422;2024-02-23T00:17:52;8.60;99.90
23869;DHT22;12115;47.128;15.422;2024-02-23T00:20:19;8.60;99.90
23869;DHT22;12115;47.128;15.422;2024-02-23T00:22:46;8.60;99.90
23869;DHT22;12115;47.128;15.422;2024-02-23T00:25:13;8.60;99.90
23869;DHT22;12115;47.128;15.422;2024-02-23T00:27:41;8.60;99.90
23869;DHT22;12115;47.128;15.422;2024-02-23T00:30:09;8.60;99.90
23869;DHT22;12115;47.128;15.422;2024-02-23T00:32:36;8.60;99.90
23869;DHT22;12115;47.128;15.422;2024-02-23T00:35:03;8.60;99.90
23869;DHT22;12115;47.128;15.422;2024-02-23T00:37:31;8.50;99.90
23869;DHT22;12115;47.128;15.422;2024-02-23T00:40:04;8.50;99.90
23869;DHT22;12115;47.128;15.422;2024-02-23T00:42:31;8.50;99.90
23869;DHT22;12115;47.128;15.422;2024-02-23T00:44:58;8.60;99.90
23869;DHT22;12115;47.128;15.422;2024-02-23T00:47:26;8.60;99.90
23869;DHT22;12115;47.128;15.422;2024-02-23T00:49:54;8.50;99.90
23869;DHT22;12115;47.128;15.422;2024-02-23T00:52:21;8.50;99.90
23869;DHT22;12115;47.128;15.422;2024-02-23T00:54:48;8.60;99.90
23869;DHT22;12115;47.128;15.422;2024-02-23T00:57:15;8.60;99.90
23869;DHT22;12115;47.128;15.422;2024-02-23T00:59:42;8.60;99.90
23869;DHT22;12115;47.128;15.422;2024-02-23T01:02:10;8.60;99.90
23869;DHT22;12115;47.128;15.422;2024-02-23T01:04:38;8.60;99.90
23869;DHT22;12115;47.128;15.422;2024-02-23T01:07:05;8.60;99.90
23869;DHT22;12115;47.128;15.422;2024-02-23T01:09:32;8.60;99.90
23869;DHT22;12115;47.128;15.422;2024-02-23T01:11:59;8.60;99.90
23869;DHT22;12115;47.128;15.422;2024-02-23T01:14:27;8.50;99.90
23869;DHT22;12115;47.128;15.422;2024-02-23T01:16:54;8.50;99.90
23869;DHT22;12115;47.128;15.422;2024-02-23T01:19:21;8.50;99.90
23869;DHT22;12115;47.128;15.422;2024-02-23T01:21:48;8.50;99.90
23869;DHT22;12115;47.128;15.422;2024-02-23T01:24:16;8.50;99.90
23869;DHT22;12115;47.128;15.422;2024-02-23T01:26:43;8.60;99.90
23869;DHT22;12115;47.128;15.422;2024-02-23T01:29:10;8.60;99.90
23869;DHT22;12115;47.128;15.422;2024-02-23T01:31:37;8.60;99.90
23869;DHT22;12115;47.128;15.422;2024-02-23T01:34:04;8.60;99.90
23869;DHT22;12115;47.128;15.422;2024-02-23T01:36:32;8.50;99.90
23869;DHT22;12115;47.128;15.422;2024-02-23T01:38:59;8.50;99.90
23869;DHT22;12115;47.128;15.422;2024-02-23T01:41:27;8.60;99.90
23869;DHT22;12115;47.128;15.422;2024-02-23T01:43:54;8.60;99.90
23869;DHT22;12115;47.128;15.422;2024-02-23T01:46:22;8.50;99.90
23869;DHT22;12115;47.128;15.422;2024-02-23T01:48:50;8.50;99.90
23869;DHT22;12115;47.128;15.422;2024-02-23T01:51:17;8.60;99.90
23869;DHT22;12115;47.128;15.422;2024-02-23T01:53:44;8.50;99.90
23869;DHT22;12115;47.128;15.422;2024-02-23T01:56:13;8.60;99.90
23869;DHT22;12115;47.128;15.422;2024-02-23T01:58:46;8.60;99.90
23869;DHT22;12115;47.128;15.422;2024-02-23T02:01:14;8.60;99.90
23869;DHT22;12115;47.128;15.422;2024-02-23T02:03:41;8.60;99.90
23869;DHT22;12115;47.128;15.422;2024-02-23T02:06:10;8.60;99.90
23869;DHT22;12115;47.128;15.422;2024-02-23T02:08:38;8.60;99.90
23869;DHT22;12115;47.128;15.422;2024-02-23T02:11:05;8.60;99.90
23869;DHT22;12115;47.128;15.422;2024-02-23T02:13:33;8.60;99.90
23869;DHT22;12115;47.128;15.422;2024-02-23T02:16:01;8.60;99.90
23869;DHT22;12115;47.128;15.422;2024-02-23T02:18:28;8.60;99.90
23869;DHT22;12115;47.128;15.422;2024-02-23T02:20:57;8.50;99.90
23869;DHT22;12115;47.128;15.422;2024-02-23T02:23:24;8.50;99.90
23869;DHT22;12115;47.128;15.422;2024-02-23T02:25:57;8.50;99.90
23869;DHT22;12115;47.128;15.422;2024-02-23T02:28:25;8.50;99.90
23869;DHT22;12115;47.128;15.422;2024-02-23T02:30:52;8.60;99.90
23869;DHT22;12115;47.128;15.422;2024-02-23T02:33:20;8.60;99.90
23869;DHT22;12115;47.128;15.422;2024-02-23T02:35:49;8.50;99.90
23869;DHT22;12115;47.128;15.422;2024-02-23T02:38:19;8.50;99.90
23869;DHT22;12115;47.128;15.422;2024-02-23T02:40:46;8.50;99.90
23869;DHT22;12115;47.128;15.422;2024-02-23T02:43:13;8.50;99.90
23869;DHT22;12115;47.128;15.422;2024-02-23T02:45:40;8.40;99.90
23869;DHT22;12115;47.128;15.422;2024-02-23T02:48:07;8.50;99.90
23869;DHT22;12115;47.128;15.422;2024-02-23T02:50:35;8.50;99.90
23869;DHT22;12115;47.128;15.422;2024-02-23T02:53:02;8.50;99.90
23869;DHT22;12115;47.128;15.422;2024-02-23T02:55:29;8.50;99.90
23869;DHT22;12115;47.128;15.422;2024-02-23T02:57:56;8.50;99.90
23869;DHT22;12115;47.128;15.422;2024-02-23T03:00:24;8.60;99.90
23869;DHT22;12115;47.128;15.422;2024-02-23T03:02:51;8.60;99.90
23869;DHT22;12115;47.128;15.422;2024-02-23T03:05:19;8.60;99.90
23869;DHT22;12115;47.128;15.422;2024-02-23T03:07:46;8.60;99.90
23869;DHT22;12115;47.128;15.422;2024-02-23T03:10:13;8.60;99.90
23869;DHT22;12115;47.128;15.422;2024-02-23T03:12:41;8.60;99.90
23869;DHT22;12115;47.128;15.422;2024-02-23T03:15:09;8.60;99.90
23869;DHT22;12115;47.128;15.422;2024-02-23T03:17:39;8.60;99.90
23869;DHT22;12115;47.128;15.422;2024-02-23T03:20:06;8.60;99.90
23869;DHT22;12115;47.128;15.422;2024-02-23T03:22:37;8.50;99.90
23869;DHT22;12115;47.128;15.422;2024-02-23T03:25:05;8.50;99.90
23869;DHT22;12115;47.128;15.422;2024-02-23T03:27:35;8.50;99.90
23869;DHT22;12115;47.128;15.422;2024-02-23T03:30:04;8.50;99.90
23869;DHT22;12115;47.128;15.422;2024-02-23T03:32:32;8.40;99.90
23869;DHT22;12115;47.128;15.422;2024-02-23T03:35:03;8.40;99.90
23869;DHT22;12115;47.128;15.422;2024-02-23T03:37:31;8.50;99.90
23869;DHT22;12115;47.128;15.422;2024-02-23T03:39:58;8.50;99.90
23869;DHT22;12115;47.128;15.422;2024-02-23T03:42:26;8.60;99.90
23869;DHT22;12115;47.128;15.422;2024-02-23T03:44:54;8.50;99.90
23869;DHT22;12115;47.128;15.422;2024-02-23T03:47:21;8.50;99.90
23869;DHT22;12115;47.128;15.422;2024-02-23T03:49:48;8.50;99.90
23869;DHT22;12115;47.128;15.422;2024-02-23T03:52:17;8.50;99.90
23869;DHT22;12115;47.128;15.422;2024-02-23T03:54:44;8.50;99.90
23869;DHT22;12115;47.128;15.422;2024-02-23T03:57:11;8.50;99.90
23869;DHT22;12115;47.128;15.422;2024-02-23T03:59:38;8.50;99.90
23869;DHT22;12115;47.128;15.422;2024-02-23T04:02:05;8.50;99.90
23869;DHT22;12115;47.128;15.422;2024-02-23T04:04:33;8.50;99.90
23869;DHT22;12115;47.128;15.422;2024-02-23T04:07:00;8.50;99.90
23869;DHT22;12115;47.128;15.422;2024-02-23T04:09:27;8.60;99.90
23869;DHT22;12115;47.128;15.422;2024-02-23T04:11:55;8.50;99.90
23869;DHT22;12115;47.128;15.422;2024-02-23T04:14:22;8.50;99.90
23869;DHT22;12115;47.128;15.422;2024-02-23T04:16:50;8.50;99.90
23869;DHT22;12115;47.128;15.422;2024-02-23T04:19:17;8.50;99.90
23869;DHT22;12115;47.128;15.422;2024-02-23T04:21:44;8.50;99.90
23869;DHT22;12115;47.128;15.422;2024-02-23T04:24:11;8.50;99.90
23869;DHT22;12115;47.128;15.422;2024-02-23T04:26:38;8.60;99.90
23869;DHT22;12115;47.128;15.422;2024-02-23T04:29:05;8.60;99.90
23869;DHT22;12115;47.128;15.422;2024-02-23T04:31:34;8.50;99.90
23869;DHT22;12115;47.128;15.422;2024-02-23T04:34:02;8.50;99.90
23869;DHT22;12115;47.128;15.422;2024-02-23T04:36:29;8.50;99.90
23869;DHT22;12115;47.128;15.422;2024-02-23T04:38:57;8.50;99.90
23869;DHT22;12115;47.128;15.422;2024-02-23T04:41:24;8.50;99.90
23869;DHT22;12115;47.128;15.422;2024-02-23T04:43:51;8.50;99.90
23869;DHT22;12115;47.128;15.422;2024-02-23T04:46:20;8.50;99.90
23869;DHT22;12115;47.128;15.422;2024-02-23T04:48:47;8.50;99.90
23869;DHT22;12115;47.128;15.422;2024-02-23T04:51:14;8.60;99.90
23869;DHT22;12115;47.128;15.422;2024-02-23T04:53:41;8.60;99.90
23869;DHT22;12115;47.128;15.422;2024-02-23T04:56:08;8.60;99.90
23869;DHT22;12115;47.128;15.422;2024-02-23T04:58:35;8.60;99.90
23869;DHT22;12115;47.128;15.422;2024-02-23T05:01:04;8.60;99.90
23869;DHT22;12115;47.128;15.422;2024-02-23T05:03:31;8.60;99.90
23869;DHT22;12115;47.128;15.422;2024-02-23T05:05:58;8.50;99.90
23869;DHT22;12115;47.128;15.422;2024-02-23T05:08:26;8.50;99.90
23869;DHT22;12115;47.128;15.422;2024-02-23T05:10:54;8.50;99.90
23869;DHT22;12115;47.128;15.422;2024-02-23T05:13:21;8.50;99.90
23869;DHT22;12115;47.128;15.422;2024-02-23T05:15:48;8.50;99.90
23869;DHT22;12115;47.128;15.422;2024-02-23T05:18:15;8.40;99.90
23869;DHT22;12115;47.128;15.422;2024-02-23T05:20:42;8.40;99.90
23869;DHT22;12115;47.128;15.422;2024-02-23T05:23:10;8.40;99.90
23869;DHT22;12115;47.128;15.422;2024-02-23T05:25:37;8.40;99.90
23869;DHT22;12115;47.128;15.422;2024-02-23T05:28:04;8.40;99.90
23869;DHT22;12115;47.128;15.422;2024-02-23T05:30:31;8.40;99.90
23869;DHT22;12115;47.128;15.422;2024-02-23T05:32:58;8.40;99.90
23869;DHT22;12115;47.128;15.422;2024-02-23T05:35:26;8.40;99.90
23869;DHT22;12115;47.128;15.422;2024-02-23T05:37:56;8.40;99.90
23869;DHT22;12115;47.128;15.422;2024-02-23T05:40:23;8.40;99.90
23869;DHT22;12115;47.128;15.422;2024-02-23T05:42:51;8.40;99.90
23869;DHT22;12115;47.128;15.422;2024-02-23T05:45:18;8.40;99.90
23869;DHT22;12115;47.128;15.422;2024-02-23T05:47:45;8.40;99.90
23869;DHT22;12115;47.128;15.422;2024-02-23T05:50:15;8.40;99.90
23869;DHT22;12115;47.128;15.422;2024-02-23T05:52:43;8.40;99.90
23869;DHT22;12115;47.128;15.422;2024-02-23T05:55:10;8.30;99.90
23869;DHT22;12115;47.128;15.422;2024-02-23T05:57:37;8.30;99.90
23869;DHT22;12115;47.128;15.422;2024-02-23T06:00:05;8.30;99.90
23869;DHT22;12115;47.128;15.422;2024-02-23T06:02:37;8.30;99.90
23869;DHT22;12115;47.128;15.422;2024-02-23T06:05:05;8.20;99.90
23869;DHT22;12115;47.128;15.422;2024-02-23T06:07:34;8.10;99.90
23869;DHT22;12115;47.128;15.422;2024-02-23T06:10:02;8.20;99.90
23869;DHT22;12115;47.128;15.422;2024-02-23T06:12:29;8.10;99.90
23869;DHT22;12115;47.128;15.422;2024-02-23T06:14:56;8.10;99.90
23869;DHT22;12115;47.128;15.422;2024-02-23T06:17:25;8.10;99.90
23869;DHT22;12115;47.128;15.422;2024-02-23T06:19:52;8.10;99.90
23869;DHT22;12115;47.128;15.422;2024-02-23T06:22:24;8.10;99.90
23869;DHT22;12115;47.128;15.422;2024-02-23T06:24:52;8.00;99.90
23869;DHT22;12115;47.128;15.422;2024-02-23T06:27:19;8.00;99.90
23869;DHT22;12115;47.128;15.422;2024-02-23T06:29:48;7.90;99.90
23869;DHT22;12115;47.128;15.422;2024-02-23T06:32:16;8.00;99.90
23869;DHT22;12115;47.128;15.422;2024-02-23T06:34:43;7.90;99.90
23869;DHT22;12115;47.128;15.422;2024-02-23T06:37:10;7.90;99.90
23869;DHT22;12115;47.128;15.422;2024-02-23T06:39:37;7.90;99.90
23869;DHT22;12115;47.128;15.422;2024-02-23T06:42:04;7.90;99.90
23869;DHT22;12115;47.128;15.422;2024-02-23T06:44:31;7.90;99.90
23869;DHT22;12115;47.128;15.422;2024-02-23T06:46:59;7.90;99.90
23869;DHT22;12115;47.128;15.422;2024-02-23T06:49:26;7.90;99.90
23869;DHT22;12115;47.128;15.422;2024-02-23T06:51:53;7.90;99.90
23869;DHT22;12115;47.128;15.422;2024-02-23T06:54:20;7.80;99.90
23869;DHT22;12115;47.128;15.422;2024-02-23T06:56:47;7.80;99.90
23869;DHT22;12115;47.128;15.422;2024-02-23T06:59:15;7.80;99.90
23869;DHT22;12115;47.128;15.422;2024-02-23T07:01:49;7.80;99.90
23869;DHT22;12115;47.128;15.422;2024-02-23T07:04:17;7.80;99.90
23869;DHT22;12115;47.128;15.422;2024-02-23T07:06:44;7.80;99.90
23869;DHT22;12115;47.128;15.422;2024-02-23T07:09:12;7.80;99.90
23869;DHT22;12115;47.128;15.422;2024-02-23T07:11:39;7.90;99.90
23869;DHT22;12115;47.128;15.422;2024-02-23T07:14:09;7.90;99.90
23869;DHT22;12115;47.128;15.422;2024-02-23T07:16:39;7.90;99.90
23869;DHT22;12115;47.128;15.422;2024-02-23T07:19:07;7.80;99.90
23869;DHT22;12115;47.128;15.422;2024-02-23T07:21:34;7.80;99.90
23869;DHT22;12115;47.128;15.422;2024-02-23T07:24:01;7.80;99.90
23869;DHT22;12115;47.128;15.422;2024-02-23T07:26:29;7.80;99.90
23869;DHT22;12115;47.128;15.422;2024-02-23T07:28:56;7.90;99.90
23869;DHT22;12115;47.128;15.422;2024-02-23T07:31:23;7.90;99.90
23869;DHT22;12115;47.128;15.422;2024-02-23T07:33:51;7.90;99.90
23869;DHT22;12115;47.128;15.422;2024-02-23T07:36:18;7.90;99.90
23869;DHT22;12115;47.128;15.422;2024-02-23T07:38:45;7.90;99.90
23869;DHT22;12115;47.128;15.422;2024-02-23T07:41:12;7.90;99.90
23869;DHT22;12115;47.128;15.422;2024-02-23T07:43:40;7.90;99.90
23869;DHT22;12115;47.128;15.422;2024-02-23T07:46:07;8.00;99.90
23869;DHT22;12115;47.128;15.422;2024-02-23T07:48:37;8.00;99.90
23869;DHT22;12115;47.128;15.422;2024-02-23T07:51:05;8.00;99.90
23869;DHT22;12115;47.128;15.422;2024-02-23T07:53:32;8.00;99.90
23869;DHT22;12115;47.128;15.422;2024-02-23T07:56:00;8.00;99.90
23869;DHT22;12115;47.128;15.422;2024-02-23T07:58:29;8.10;99.90
23869;DHT22;12115;47.128;15.422;2024-02-23T08:00:56;8.10;99.90
23869;DHT22;12115;47.128;15.422;2024-02-23T08:03:24;8.10;99.90
23869;DHT22;12115;47.128;15.422;2024-02-23T08:05:51;8.10;99.90
23869;DHT22;12115;47.128;15.422;2024-02-23T08:08:18;8.20;99.90
23869;DHT22;12115;47.128;15.422;2024-02-23T08:10:47;8.20;99.90
23869;DHT22;12115;47.128;15.422;2024-02-23T08:13:14;8.20;99.90
23869;DHT22;12115;47.128;15.422;2024-02-23T08:15:42;8.20;99.90
23869;DHT22;12115;47.128;15.422;2024-02-23T08:18:09;8.30;99.90
23869;DHT22;12115;47.128;15.422;2024-02-23T08:20:38;8.30;99.90
23869;DHT22;12115;47.128;15.422;2024-02-23T08:23:06;8.30;99.90
23869;DHT22;12115;47.128;15.422;2024-02-23T08:25:33;8.30;99.90
23869;DHT22;12115;47.128;15.422;2024-02-23T08:28:01;8.30;99.90
23869;DHT22;12115;47.128;15.422;2024-02-23T08:30:28;8.30;99.90
23869;DHT22;12115;47.128;15.422;2024-02-23T08:32:56;8.30;99.90
23869;DHT22;12115;47.128;15.422;2024-02-23T08:35:26;8.30;99.90
23869;DHT22;12115;47.128;15.422;2024-02-23T08:37:53;8.40;99.90
23869;DHT22;12115;47.128;15.422;2024-02-23T08:40:21;8.40;99.90
23869;DHT22;12115;47.128;15.422;2024-02-23T08:42:51;8.40;99.90
23869;DHT22;12115;47.128;15.422;2024-02-23T08:45:18;8.40;99.90
23869;DHT22;12115;47.128;15.422;2024-02-23T08:47:46;8.50;99.90
23869;DHT22;12115;47.128;15.422;2024-02-23T08:50:13;8.50;99.90
23869;DHT22;12115;47.128;15.422;2024-02-23T08:52:42;8.50;99.90
23869;DHT22;12115;47.128;15.422;2024-02-23T08:55:09;8.50;99.90
23869;DHT22;12115;47.128;15.422;2024-02-23T08:57:39;8.30;99.90
23869;DHT22;12115;47.128;15.422;2024-02-23T09:00:07;8.30;99.90
23869;DHT22;12115;47.128;15.422;2024-02-23T09:02:35;8.30;99.90
23869;DHT22;12115;47.128;15.422;2024-02-23T09:05:02;8.40;99.90
23869;DHT22;12115;47.128;15.422;2024-02-23T09:07:31;8.40;99.90
23869;DHT22;12115;47.128;15.422;2024-02-23T09:09:59;8.40;99.90
23869;DHT22;12115;47.128;15.422;2024-02-23T09:12:26;8.50;99.90
23869;DHT22;12115;47.128;15.422;2024-02-23T09:14:53;8.50;99.90
23869;DHT22;12115;47.128;15.422;2024-02-23T09:17:20;8.50;99.90
23869;DHT22;12115;47.128;15.422;2024-02-23T09:19:48;8.50;99.90
23869;DHT22;12115;47.128;15.422;2024-02-23T09:22:15;8.60;99.90
23869;DHT22;12115;47.128;15.422;2024-02-23T09:24:42;8.50;99.90
23869;DHT22;12115;47.128;15.422;2024-02-23T09:27:09;8.60;99.90
23869;DHT22;12115;47.128;15.422;2024-02-23T09:29:37;8.60;99.90
23869;DHT22;12115;47.128;15.422;2024-02-23T09:32:05;8.60;99.90
23869;DHT22;12115;47.128;15.422;2024-02-23T09:34:32;8.60;99.90
23869;DHT22;12115;47.128;15.422;2024-02-23T09:37:00;8.60;99.90
23869;DHT22;12115;47.128;15.422;2024-02-23T09:39:28;8.60;99.90
23869;DHT22;12115;47.128;15.422;2024-02-23T09:41:57;8.60;99.90
23869;DHT22;12115;47.128;15.422;2024-02-23T09:44:29;8.60;99.90
23869;DHT22;12115;47.128;15.422;2024-02-23T09:47:03;8.70;99.90
23869;DHT22;12115;47.128;15.422;2024-02-23T09:49:39;8.70;99.90
23869;DHT22;12115;47.128;15.422;2024-02-23T09:52:08;8.70;99.90
23869;DHT22;12115;47.128;15.422;2024-02-23T09:54:37;8.70;99.90
23869;DHT22;12115;47.128;15.422;2024-02-23T09:57:09;8.70;99.90
23869;DHT22;12115;47.128;15.422;2024-02-23T09:59:37;8.70;99.90
23869;DHT22;12115;47.128;15.422;2024-02-23T10:02:13;8.60;99.90
23869;DHT22;12115;47.128;15.422;2024-02-23T10:04:42;8.60;99.90
23869;DHT22;12115;47.128;15.422;2024-02-23T10:07:16;8.60;99.90
23869;DHT22;12115;47.128;15.422;2024-02-23T10:09:43;8.60;99.90
23869;DHT22;12115;47.128;15.422;2024-02-23T10:12:11;8.60;99.90
23869;DHT22;12115;47.128;15.422;2024-02-23T10:14:40;8.60;99.90
23869;DHT22;12115;47.128;15.422;2024-02-23T10:17:07;8.60;99.90
23869;DHT22;12115;47.128;15.422;2024-02-23T10:19:35;8.60;99.90
23869;DHT22;12115;47.128;15.422;2024-02-23T10:22:02;8.60;99.90
23869;DHT22;12115;47.128;15.422;2024-02-23T10:24:30;8.60;99.90
23869;DHT22;12115;47.128;15.422;2024-02-23T10:27:00;8.60;99.90
23869;DHT22;12115;47.128;15.422;2024-02-23T10:29:28;8.60;99.90
23869;DHT22;12115;47.128;15.422;2024-02-23T10:31:57;8.60;99.90
23869;DHT22;12115;47.128;15.422;2024-02-23T10:34:27;8.60;99.90
23869;DHT22;12115;47.128;15.422;2024-02-23T10:36:56;8.60;99.90
23869;DHT22;12115;47.128;15.422;2024-02-23T10:39:24;8.60;99.90
23869;DHT22;12115;47.128;15.422;2024-02-23T10:42:02;8.50;99.90
23869;DHT22;12115;47.128;15.422;2024-02-23T10:44:30;8.50;99.90
23869;DHT22;12115;47.128;15.422;2024-02-23T10:47:00;8.40;99.90
23869;DHT22;12115;47.128;15.422;2024-02-23T10:49:28;8.50;99.90
23869;DHT22;12115;47.128;15.422;2024-02-23T10:51:56;8.40;99.90
23869;DHT22;12115;47.128;15.422;2024-02-23T10:54:24;8.40;99.90
23869;DHT22;12115;47.128;15.422;2024-02-23T10:56:52;8.50;99.90
23869;DHT22;12115;47.128;15.422;2024-02-23T10:59:20;8.40;99.90
23869;DHT22;12115;47.128;15.422;2024-02-23T11:01:54;8.50;99.90
23869;DHT22;12115;47.128;15.422;2024-02-23T11:04:24;8.50;99.90
23869;DHT22;12115;47.128;15.422;2024-02-23T11:06:53;8.50;99.90
23869;DHT22;12115;47.128;15.422;2024-02-23T11:09:23;8.50;99.90
23869;DHT22;12115;47.128;15.422;2024-02-23T11:11:57;8.50;99.90
23869;DHT22;12115;47.128;15.422;2024-02-23T11:14:30;8.50;99.90
23869;DHT22;12115;47.128;15.422;2024-02-23T11:16:59;8.60;99.90
23869;DHT22;12115;47.128;15.422;2024-02-23T11:19:35;8.60;99.90
23869;DHT22;12115;47.128;15.422;2024-02-23T11:22:04;8.50;99.90
23869;DHT22;12115;47.128;15.422;2024-02-23T11:24:33;8.50;99.90
23869;DHT22;12115;47.128;15.422;2024-02-23T11:27:01;8.50;99.90
23869;DHT22;12115;47.128;15.422;2024-02-23T11:29:35;8.50;99.90
23869;DHT22;12115;47.128;15.422;2024-02-23T11:32:16;8.50;99.90
23869;DHT22;12115;47.128;15.422;2024-02-23T11:35:01;8.50;99.90
23869;DHT22;12115;47.128;15.422;2024-02-23T11:37:29;8.50;99.90
23869;DHT22;12115;47.128;15.422;2024-02-23T11:40:01;8.50;99.90
23869;DHT22;12115;47.128;15.422;2024-02-23T11:42:30;8.60;99.90
23869;DHT22;12115;47.128;15.422;2024-02-23T11:44:58;8.50;99.90
23869;DHT22;12115;47.128;15.422;2024-02-23T11:47:26;8.50;99.90
23869;DHT22;12115;47.128;15.422;2024-02-23T11:49:53;8.50;99.90
23869;DHT22;12115;47.128;15.422;2024-02-23T11:52:22;8.60;99.90
23869;DHT22;12115;47.128;15.422;2024-02-23T11:54:49;8.60;99.90
23869;DHT22;12115;47.128;15.422;2024-02-23T11:57:19;8.70;99.90
23869;DHT22;12115;47.128;15.422;2024-02-23T11:59:46;8.60;99.90
23869;DHT22;12115;47.128;15.422;2024-02-23T12:02:13;8.60;99.90
23869;DHT22;12115;47.128;15.422;2024-02-23T12:04:40;8.60;99.90
23869;DHT22;12115;47.128;15.422;2024-02-23T12:07:08;8.60;99.90
23869;DHT22;12115;47.128;15.422;2024-02-23T12:09:35;8.60;99.90
23869;DHT22;12115;47.128;15.422;2024-02-23T12:12:03;8.60;99.90
23869;DHT22;12115;47.128;15.422;2024-02-23T12:14:30;8.60;99.90
23869;DHT22;12115;47.128;15.422;2024-02-23T12:16:58;8.60;99.90
23869;DHT22;12115;47.128;15.422;2024-02-23T12:19:25;8.60;99.90
23869;DHT22;12115;47.128;15.422;2024-02-23T12:21:52;8.60;99.90
23869;DHT22;12115;47.128;15.422;2024-02-23T12:24:20;8.50;99.90
23869;DHT22;12115;47.128;15.422;2024-02-23T12:26:54;8.60;99.90
23869;DHT22;12115;47.128;15.422;2024-02-23T12:29:21;8.60;99.90
23869;DHT22;12115;47.128;15.422;2024-02-23T12:31:49;8.60;99.90
23869;DHT22;12115;47.128;15.422;2024-02-23T12:34:16;8.60;99.90
23869;DHT22;12115;47.128;15.422;2024-02-23T12:36:46;8.70;99.90
23869;DHT22;12115;47.128;15.422;2024-02-23T12:39:13;8.70;99.90
23869;DHT22;12115;47.128;15.422;2024-02-23T12:41:40;8.60;99.90
23869;DHT22;12115;47.128;15.422;2024-02-23T12:44:07;8.50;99.90
23869;DHT22;12115;47.128;15.422;2024-02-23T12:46:34;8.60;99.90
23869;DHT22;12115;47.128;15.422;2024-02-23T12:49:02;8.60;99.90
23869;DHT22;12115;47.128;15.422;2024-02-23T12:51:29;8.60;99.90
23869;DHT22;12115;47.128;15.422;2024-02-23T12:53:56;8.60;99.90
23869;DHT22;12115;47.128;15.422;2024-02-23T12:56:23;8.60;99.90
23869;DHT22;12115;47.128;15.422;2024-02-23T12:58:52;8.60;99.90
23869;DHT22;12115;47.128;15.422;2024-02-23T13:01:23;8.60;99.90
23869;DHT22;12115;47.128;15.422;2024-02-23T13:03:50;8.70;99.90
23869;DHT22;12115;47.128;15.422;2024-02-23T13:06:18;8.70;99.90
23869;DHT22;12115;47.128;15.422;2024-02-23T13:08:45;8.70;99.90
23869;DHT22;12115;47.128;15.422;2024-02-23T13:11:13;8.70;99.90
23869;DHT22;12115;47.128;15.422;2024-02-23T13:13:43;8.70;99.90
23869;DHT22;12115;47.128;15.422;2024-02-23T13:16:10;8.60;99.90
23869;DHT22;12115;47.128;15.422;2024-02-23T13:18:38;8.60;99.90
23869;DHT22;12115;47.128;15.422;2024-02-23T13:21:05;8.60;99.90
23869;DHT22;12115;47.128;15.422;2024-02-23T13:23:35;8.60;99.90
23869;DHT22;12115;47.128;15.422;2024-02-23T13:26:03;8.60;99.90
23869;DHT22;12115;47.128;15.422;2024-02-23T13:28:31;8.60;99.90
23869;DHT22;12115;47.128;15.422;2024-02-23T13:30:58;8.60;99.90
23869;DHT22;12115;47.128;15.422;2024-02-23T13:33:25;8.60;99.90
23869;DHT22;12115;47.128;15.422;2024-02-23T13:35:53;8.60;99.90
23869;DHT22;12115;47.128;15.422;2024-02-23T13:38:22;8.60;99.90
23869;DHT22;12115;47.128;15.422;2024-02-23T13:40:49;8.70;99.90
23869;DHT22;12115;47.128;15.422;2024-02-23T13:43:17;8.60;99.90
23869;DHT22;12115;47.128;15.422;2024-02-23T13:45:51;8.70;99.90
23869;DHT22;12115;47.128;15.422;2024-02-23T13:48:21;8.70;99.90
23869;DHT22;12115;47.128;15.422;2024-02-23T13:50:49;8.70;99.90
23869;DHT22;12115;47.128;15.422;2024-02-23T13:53:17;8.70;99.90
23869;DHT22;12115;47.128;15.422;2024-02-23T13:55:44;8.80;99.90
23869;DHT22;12115;47.128;15.422;2024-02-23T13:58:11;8.80;99.90
23869;DHT22;12115;47.128;15.422;2024-02-23T14:00:39;8.90;99.90
23869;DHT22;12115;47.128;15.422;2024-02-23T14:03:06;8.90;99.90
23869;DHT22;12115;47.128;15.422;2024-02-23T14:05:34;9.00;99.90
23869;DHT22;12115;47.128;15.422;2024-02-23T14:08:02;9.00;99.90
23869;DHT22;12115;47.128;15.422;2024-02-23T14:10:33;9.00;99.90
23869;DHT22;12115;47.128;15.422;2024-02-23T14:13:00;9.00;99.90
23869;DHT22;12115;47.128;15.422;2024-02-23T14:15:27;9.10;99.90
23869;DHT22;12115;47.128;15.422;2024-02-23T14:17:54;9.10;99.90
23869;DHT22;12115;47.128;15.422;2024-02-23T14:20:22;9.10;99.90
23869;DHT22;12115;47.128;15.422;2024-02-23T14:22:49;9.10;99.90
23869;DHT22;12115;47.128;15.422;2024-02-23T14:25:17;9.00;99.90
23869;DHT22;12115;47.128;15.422;2024-02-23T14:27:44;9.00;99.90
23869;DHT22;12115;47.128;15.422;2024-02-23T14:30:11;9.10;99.90
23869;DHT22;12115;47.128;15.422;2024-02-23T14:32:38;9.00;99.90
23869;DHT22;12115;47.128;15.422;2024-02-23T14:35:09;9.10;99.90
23869;DHT22;12115;47.128;15.422;2024-02-23T14:37:36;9.10;99.90
23869;DHT22;12115;47.128;15.422;2024-02-23T14:40:04;9.10;99.90
23869;DHT22;12115;47.128;15.422;2024-02-23T14:42:32;9.10;99.90
23869;DHT22;12115;47.128;15.422;2024-02-23T14:44:59;9.10;99.90
23869;DHT22;12115;47.128;15.422;2024-02-23T14:47:26;9.00;99.90
23869;DHT22;12115;47.128;15.422;2024-02-23T14:50:04;9.00;99.90
23869;DHT22;12115;47.128;15.422;2024-02-23T14:52:31;9.00;99.90
23869;DHT22;12115;47.128;15.422;2024-02-23T14:54:59;9.00;99.90
23869;DHT22;12115;47.128;15.422;2024-02-23T14:57:26;9.00;99.90
23869;DHT22;12115;47.128;15.422;2024-02-23T14:59:53;8.90;99.90
23869;DHT22;12115;47.128;15.422;2024-02-23T15:02:22;8.90;99.90
23869;DHT22;12115;47.128;15.422;2024-02-23T15:04:49;8.90;99.90
23869;DHT22;12115;47.128;15.422;2024-02-23T15:07:16;8.90;99.90
23869;DHT22;12115;47.128;15.422;2024-02-23T15:09:44;8.90;99.90
23869;DHT22;12115;47.128;15.422;2024-02-23T15:12:11;8.90;99.90
23869;DHT22;12115;47.128;15.422;2024-02-23T15:14:39;8.80;99.90
23869;DHT22;12115;47.128;15.422;2024-02-23T15:17:06;8.80;99.90
23869;DHT22;12115;47.128;15.422;2024-02-23T15:19:33;8.80;99.90
23869;DHT22;12115;47.128;15.422;2024-02-23T15:22:02;8.80;99.90
23869;DHT22;12115;47.128;15.422;2024-02-23T15:24:29;8.70;99.90
23869;DHT22;12115;47.128;15.422;2024-02-23T15:26:57;8.70;99.90
23869;DHT22;12115;47.128;15.422;2024-02-23T15:29:24;8.70;99.90
23869;DHT22;12115;47.128;15.422;2024-02-23T15:31:51;8.70;99.90
23869;DHT22;12115;47.128;15.422;2024-02-23T15:34:19;8.70;99.90